Time;durP1;ratioP1;P1;durP2;ratioP2;P2;SDS_P1;SDS_P2;PMS_P1;PMS_P2;Temp;Humidity;BMP_temperature;BMP_pressure;BME280_temperature;BME280_humidity;BME280_pressure;Samples;Min_cycle;Max_cycle;Signal;HPM_P1;HPM_P2
2022/05/11 00:02:01;;;;;;;13.03;5.20;;;16.10;99.90;;;16.99;100.00;98074.00;5022057;28;20446;-76
2022/05/11 00:04:31;;;;;;;7.07;4.90;;;16.00;99.90;;;16.98;100.00;98069.75;5025655;28;20494;-76
2022/05/11 00:07:02;;;;;;;5.37;4.33;;;15.90;99.90;;;16.96;100.00;98069.19;5023578;28;20446;-76
2022/05/11 00:09:32;;;;;;;5.17;4.33;;;16.00;99.90;;;16.92;100.00;98062.75;5020757;28;20446;-76
2022/05/11 00:12:02;;;;;;;7.70;4.43;;;15.90;99.90;;;16.89;100.00;98071.13;5017883;28;20455;-76
2022/05/11 00:14:33;;;;;;;7.80;4.70;;;15.90;99.90;;;16.86;100.00;98068.94;5018001;28;20466;-76
2022/05/11 00:17:03;;;;;;;5.07;4.57;;;15.90;99.90;;;16.82;100.00;98060.66;5018803;28;20458;-76
2022/05/11 00:19:33;;;;;;;7.73;5.13;;;15.80;99.90;;;16.80;100.00;98065.34;5019247;28;20542;-76
2022/05/11 00:22:03;;;;;;;11.30;5.00;;;15.80;99.90;;;16.77;100.00;98057.06;5017492;28;21343;-76
2022/05/11 00:24:34;;;;;;;7.40;4.40;;;15.80;99.90;;;16.74;100.00;98058.34;5018295;28;20540;-76
2022/05/11 00:27:07;;;;;;;5.43;4.67;;;15.80;99.90;;;16.69;100.00;98062.69;5019430;28;20478;-76
2022/05/11 00:29:35;;;;;;;7.70;4.57;;;15.80;99.90;;;16.65;100.00;98058.88;5018730;28;20505;-76
2022/05/11 00:32:05;;;;;;;5.60;5.00;;;15.80;99.90;;;16.56;100.00;98059.19;5018424;28;20446;-76
2022/05/11 00:34:36;;;;;;;8.60;4.20;;;15.70;99.90;;;16.50;100.00;98065.34;5019615;28;20446;-76
2022/05/11 00:37:07;;;;;;;5.90;4.20;;;15.60;99.90;;;16.46;100.00;98053.63;5019481;28;20470;-76
2022/05/11 00:39:36;;;;;;;6.70;4.93;;;15.60;99.90;;;16.41;100.00;98056.16;5018626;28;20446;-76
2022/05/11 00:42:08;;;;;;;9.77;4.97;;;15.60;99.90;;;16.34;100.00;98047.50;5018684;28;20571;-76
2022/05/11 00:44:37;;;;;;;7.17;5.20;;;15.40;99.90;;;16.29;100.00;98050.00;5018843;28;20569;-76
2022/05/11 00:47:15;;;;;;;6.60;4.90;;;15.30;99.90;;;16.27;100.00;98049.44;5019342;28;20862;-76
2022/05/11 00:49:51;;;;;;;5.00;4.37;;;15.30;99.90;;;16.31;100.00;98045.31;5018004;28;20486;-76
2022/05/11 00:52:39;;;;;;;6.77;4.53;;;15.20;99.90;;;16.23;100.00;98045.63;5018005;28;20461;-76
2022/05/11 00:55:16;;;;;;;7.70;5.23;;;15.20;99.90;;;16.17;100.00;98043.88;5018333;28;20461;-76
2022/05/11 00:57:52;;;;;;;7.53;4.30;;;15.30;99.90;;;16.10;100.00;98040.50;5018774;28;20501;-76
2022/05/11 01:00:25;;;;;;;6.30;4.57;;;15.20;99.90;;;16.12;100.00;98046.38;5019748;28;20480;-76
2022/05/11 01:03:02;;;;;;;8.13;4.60;;;15.10;99.90;;;16.09;100.00;98036.25;5017979;28;20440;-76
2022/05/11 01:05:33;;;;;;;5.80;4.40;;;15.10;99.90;;;16.08;100.00;98039.91;5020216;28;20455;-76
2022/05/11 01:08:03;;;;;;;7.80;5.40;;;15.20;99.90;;;15.99;100.00;98038.63;5023791;28;20526;-76
2022/05/11 01:10:34;;;;;;;4.83;4.33;;;15.10;99.90;;;15.94;100.00;98033.19;5026310;28;20906;-76
2022/05/11 01:13:11;;;;;;;8.53;4.57;;;15.00;99.90;;;15.91;100.00;98031.81;5027732;28;20500;-76
2022/05/11 01:15:45;;;;;;;6.10;4.60;;;14.90;99.90;;;15.86;100.00;98033.50;5027860;28;20446;-76
2022/05/11 01:18:16;;;;;;;7.10;4.27;;;15.00;99.90;;;15.80;100.00;98034.38;5024071;28;20435;-76
2022/05/11 01:20:46;;;;;;;6.00;4.80;;;14.90;99.90;;;15.80;100.00;98034.38;5022232;28;20480;-76
2022/05/11 01:23:26;;;;;;;7.60;4.90;;;14.80;99.90;;;15.73;100.00;98026.53;5022865;28;20434;-76
2022/05/11 01:25:57;;;;;;;8.40;4.70;;;14.80;99.90;;;15.68;100.00;98030.88;5020518;28;20500;-76
2022/05/11 01:28:26;;;;;;;7.50;4.83;;;14.70;99.90;;;15.67;100.00;98029.25;5021120;28;20469;-76
2022/05/11 01:31:05;;;;;;;6.67;4.87;;;14.70;99.90;;;15.68;100.00;98028.22;5021998;28;20462;-76
2022/05/11 01:33:39;;;;;;;7.23;4.40;;;14.70;99.90;;;15.64;100.00;98021.78;5022114;28;20466;-76
2022/05/11 01:36:20;;;;;;;6.23;4.57;;;14.60;99.90;;;15.65;100.00;98018.13;5022464;28;20503;-76
2022/05/11 01:38:52;;;;;;;6.23;4.03;;;14.60;99.90;;;15.59;100.00;98020.59;5021840;28;20940;-76
2022/05/11 01:41:29;;;;;;;5.80;4.20;;;14.60;99.90;;;15.57;100.00;98020.03;5022966;28;20437;-76
2022/05/11 01:44:01;;;;;;;5.63;4.50;;;14.60;99.90;;;15.55;100.00;98019.41;5022658;28;20517;-76
2022/05/11 01:46:31;;;;;;;9.00;4.73;;;14.60;99.90;;;15.48;100.00;98023.97;5022516;28;20489;-76
2022/05/11 01:49:02;;;;;;;6.90;4.50;;;14.60;99.90;;;15.43;100.00;98022.97;5021658;28;20443;-76
2022/05/11 01:51:36;;;;;;;5.73;4.80;;;14.60;99.90;;;15.37;100.00;98024.66;5021394;28;20435;-76
2022/05/11 01:54:06;;;;;;;5.77;5.03;;;14.60;99.90;;;15.34;100.00;98026.94;5021602;28;20447;-76
2022/05/11 01:56:39;;;;;;;4.80;3.87;;;14.50;99.90;;;15.32;100.00;98027.13;5023390;28;20805;-76
2022/05/11 01:59:08;;;;;;;6.67;4.93;;;14.50;99.90;;;15.29;100.00;98024.94;5019088;28;20941;-76
2022/05/11 02:01:41;;;;;;;7.80;4.90;;;14.40;99.90;;;15.28;100.00;98023.31;5020781;28;20477;-76
2022/05/11 02:09:44;;;;;;;6.70;4.57;;;14.40;99.90;;;15.10;100.00;98021.44;5020002;28;20446;-76
2022/05/11 02:12:16;;;;;;;6.60;4.93;;;14.20;99.90;;;15.12;100.00;98029.16;5021438;28;20506;-76
2022/05/11 02:14:45;;;;;;;5.70;4.40;;;14.20;99.90;;;15.09;100.00;98019.06;5023403;28;20973;-76
2022/05/11 02:17:15;;;;;;;6.30;5.40;;;14.20;99.90;;;15.07;100.00;98021.06;5026672;28;20511;-76
2022/05/11 02:19:46;;;;;;;9.80;4.97;;;14.10;99.90;;;15.04;100.00;98011.78;5026706;28;20508;-77
2022/05/11 02:22:17;;;;;;;5.50;4.57;;;14.20;99.90;;;14.92;100.00;98012.72;5024883;28;20497;-76
2022/05/11 02:24:47;;;;;;;6.37;4.90;;;14.20;99.90;;;14.86;100.00;98013.56;5027166;28;20490;-76
2022/05/11 02:27:19;;;;;;;7.80;5.40;;;14.10;99.90;;;14.79;100.00;98012.81;5027259;28;20516;-76
2022/05/11 02:29:49;;;;;;;5.60;4.23;;;14.00;99.90;;;14.78;100.00;98016.47;5026692;28;21486;-76
2022/05/11 02:32:19;;;;;;;7.33;4.93;;;14.00;99.90;;;14.77;100.00;98009.59;5025621;28;20982;-76
2022/05/11 02:37:37;;;;;;;5.37;4.80;;;13.90;99.90;;;14.68;100.00;98008.25;5022265;28;20434;-76
2022/05/11 02:40:12;;;;;;;7.13;5.57;;;13.90;99.90;;;14.64;100.00;98005.25;5021425;28;20459;-76
2022/05/11 02:42:43;;;;;;;6.13;4.73;;;13.80;99.90;;;14.61;100.00;98011.72;5022463;28;21010;-76
2022/05/11 02:45:14;;;;;;;6.60;4.80;;;13.70;99.90;;;14.54;100.00;98010.16;5019828;28;20523;-76
2022/05/11 02:47:45;;;;;;;8.43;5.50;;;13.70;99.90;;;14.52;100.00;98010.38;5020082;28;20823;-76
2022/05/11 02:50:19;;;;;;;6.30;5.13;;;13.70;99.90;;;14.50;100.00;98006.34;5019647;28;20459;-76
2022/05/11 02:52:50;;;;;;;6.47;4.73;;;13.70;99.90;;;14.48;100.00;98001.28;5019928;28;20453;-76
2022/05/11 02:55:20;;;;;;;5.73;4.40;;;13.60;99.90;;;14.49;100.00;98004.72;5015666;28;20454;-76
2022/05/11 02:57:51;;;;;;;5.37;4.87;;;13.70;99.90;;;14.44;100.00;98002.72;5020490;28;20496;-76
2022/05/11 03:00:21;;;;;;;7.83;5.23;;;13.60;99.90;;;14.45;100.00;98001.72;5019572;28;20447;-76
2022/05/11 03:02:51;;;;;;;7.00;4.77;;;13.60;99.90;;;14.47;100.00;97998.88;5020584;28;20525;-76
2022/05/11 03:05:21;;;;;;;5.50;4.87;;;13.60;99.90;;;14.45;100.00;97995.63;5020214;28;20491;-75
2022/05/11 03:07:51;;;;;;;6.47;5.10;;;13.60;99.90;;;14.46;100.00;97998.06;5019101;28;21035;-87
2022/05/11 03:10:23;;;;;;;6.70;5.80;;;13.60;99.90;;;14.38;100.00;97994.88;5022102;28;20447;-76
2022/05/11 03:12:55;;;;;;;6.37;4.93;;;13.50;99.90;;;14.39;100.00;97997.31;5019618;28;20437;-76
2022/05/11 03:15:24;;;;;;;10.93;5.20;;;13.50;99.90;;;14.39;100.00;97994.69;5019752;28;20445;-76
2022/05/11 03:17:55;;;;;;;7.57;5.00;;;13.50;99.90;;;14.42;100.00;97991.63;5020638;28;20615;-76
2022/05/11 03:20:26;;;;;;;5.67;4.90;;;13.60;99.90;;;14.45;100.00;97996.44;5019312;28;20490;-75
2022/05/11 03:22:57;;;;;;;6.90;5.50;;;13.60;99.90;;;14.41;100.00;97984.72;5019586;28;20875;-81
2022/05/11 03:25:27;;;;;;;7.80;5.63;;;13.60;99.90;;;14.40;100.00;97983.13;5025766;28;20474;-76
2022/05/11 03:27:58;;;;;;;8.37;6.00;;;13.60;99.90;;;14.40;100.00;97991.03;5019951;28;21030;-76
2022/05/11 03:30:28;;;;;;;6.53;5.30;;;13.60;99.90;;;14.40;100.00;97985.78;5019520;28;20446;-76
2022/05/11 03:35:45;;;;;;;10.10;6.00;;;13.50;99.90;;;14.37;100.00;97986.16;5026241;28;20438;-76
2022/05/11 03:38:14;;;;;;;7.23;4.77;;;13.50;99.90;;;14.42;100.00;97986.34;5024915;28;20796;-75
2022/05/11 03:40:45;;;;;;;8.00;5.43;;;13.50;99.90;;;14.43;100.00;97982.72;5019064;28;20458;-75
2022/05/11 03:43:17;;;;;;;6.00;5.03;;;13.50;99.90;;;14.42;100.00;97983.72;5020021;28;20486;-75
2022/05/11 03:45:48;;;;;;;8.57;5.53;;;13.50;99.90;;;14.43;100.00;97982.72;5019693;28;20526;-75
2022/05/11 03:48:18;;;;;;;6.00;5.03;;;13.60;99.90;;;14.44;100.00;97984.31;5018009;28;20484;-76
2022/05/11 03:50:49;;;;;;;5.73;5.10;;;13.50;99.90;;;14.44;100.00;97972.97;5019930;28;20454;-75
2022/05/11 03:53:20;;;;;;;8.40;6.43;;;13.50;99.90;;;14.47;100.00;97975.97;5018763;28;20458;-75
2022/05/11 03:55:49;;;;;;;9.50;5.83;;;13.50;99.90;;;14.45;100.00;97974.59;5018934;28;20449;-75
2022/05/11 03:58:21;;;;;;;11.30;6.80;;;13.60;99.90;;;14.41;100.00;97968.94;5017681;28;20458;-84
2022/05/11 04:00:55;;;;;;;8.87;5.90;;;13.50;99.90;;;14.40;100.00;97977.88;5016010;28;20524;-75
2022/05/11 04:03:25;;;;;;;7.90;5.97;;;13.50;99.90;;;14.41;100.00;97974.22;5015416;28;20886;-75
2022/05/11 04:05:55;;;;;;;8.90;5.17;;;13.40;99.90;;;14.36;100.00;97976.69;5016690;28;20494;-75
2022/05/11 04:08:26;;;;;;;6.70;5.33;;;13.50;99.90;;;14.36;100.00;97976.69;5018841;28;20466;-83
2022/05/11 04:10:56;;;;;;;11.00;5.73;;;13.50;99.90;;;14.40;100.00;97979.69;5019275;28;20481;-75
2022/05/11 04:13:28;;;;;;;6.17;5.17;;;13.40;99.90;;;14.38;100.00;97973.81;5018499;28;20504;-76
2022/05/11 04:15:58;;;;;;;12.10;5.53;;;13.40;99.90;;;14.39;100.00;97971.00;5018291;28;20960;-76
2022/05/11 04:18:27;;;;;;;6.87;5.37;;;13.50;99.90;;;14.37;100.00;97970.38;5019387;28;20812;-76
2022/05/11 04:20:57;;;;;;;7.23;5.60;;;13.50;99.90;;;14.36;100.00;97970.63;5019824;28;20941;-76
2022/05/11 04:23:27;;;;;;;7.63;5.60;;;13.40;99.90;;;14.38;100.00;97972.00;5018037;28;20472;-76
2022/05/11 04:25:57;;;;;;;10.13;6.10;;;13.40;99.90;;;14.38;100.00;97973.81;5020251;28;20466;-76
2022/05/11 04:28:30;;;;;;;8.30;5.97;;;13.40;99.90;;;14.35;100.00;97972.44;5021567;28;20944;-76
2022/05/11 04:31:04;;;;;;;8.20;5.70;;;13.30;99.90;;;14.32;100.00;97964.94;5021091;28;20461;-76
2022/05/11 04:33:34;;;;;;;8.30;5.83;;;13.30;99.90;;;14.31;100.00;97973.03;5020378;28;20460;-76
2022/05/11 04:36:05;;;;;;;7.00;5.40;;;13.30;99.90;;;14.33;100.00;97971.81;5020564;28;20436;-76
2022/05/11 04:38:34;;;;;;;7.40;5.60;;;13.30;99.90;;;14.34;100.00;97970.00;5022903;28;20450;-76
2022/05/11 04:41:04;;;;;;;8.10;5.80;;;13.30;99.90;;;14.34;100.00;97978.72;5026947;28;21228;-76
2022/05/11 04:43:35;;;;;;;8.70;6.30;;;13.30;99.90;;;14.33;100.00;97979.72;5027128;28;20492;-76
2022/05/11 04:46:05;;;;;;;8.17;6.00;;;13.40;99.90;;;14.32;100.00;97970.19;5031056;28;20521;-76
2022/05/11 04:48:36;;;;;;;8.80;5.90;;;13.40;99.90;;;14.34;100.00;97968.19;5031580;28;20493;-76
2022/05/11 04:51:07;;;;;;;6.87;5.47;;;13.40;99.90;;;14.34;100.00;97967.38;5030136;28;20605;-76
2022/05/11 04:53:37;;;;;;;8.73;5.63;;;13.40;99.90;;;14.33;100.00;97969.19;5030753;28;20446;-76
2022/05/11 04:56:08;;;;;;;8.70;6.80;;;13.40;99.90;;;14.37;100.00;97961.72;5030266;28;20450;-76
2022/05/11 04:58:39;;;;;;;8.70;6.50;;;13.40;99.90;;;14.40;100.00;97975.25;5029409;28;20439;-76
2022/05/11 05:01:09;;;;;;;7.30;5.63;;;13.50;99.90;;;14.44;100.00;97979.03;5030471;28;20446;-76
2022/05/11 05:03:39;;;;;;;9.30;6.50;;;13.40;99.90;;;14.47;100.00;97973.34;5030658;28;20442;-76
2022/05/11 05:06:09;;;;;;;7.40;6.40;;;13.50;99.90;;;14.49;100.00;97976.59;5029128;28;20581;-76
2022/05/11 05:08:38;;;;;;;8.50;6.87;;;13.50;99.90;;;14.52;100.00;97973.53;5028615;28;20454;-76
2022/05/11 05:11:09;;;;;;;9.43;6.23;;;13.60;99.90;;;14.53;100.00;97975.16;5024506;28;20464;-76
2022/05/11 05:13:39;;;;;;;10.73;6.27;;;13.60;99.90;;;14.54;100.00;97968.84;5023745;28;20446;-76
2022/05/11 05:16:10;;;;;;;8.10;6.60;;;13.50;99.90;;;14.59;100.00;97976.09;5025716;28;20451;-76
2022/05/11 05:18:40;;;;;;;7.77;6.60;;;13.60;99.90;;;14.63;100.00;97965.97;5022414;28;20442;-76
2022/05/11 05:21:10;;;;;;;9.73;6.90;;;13.60;99.90;;;14.66;100.00;97976.88;5023903;28;21015;-76
2022/05/11 05:23:41;;;;;;;22.30;6.70;;;13.60;99.90;;;14.70;100.00;97974.63;5023665;28;20817;-76
2022/05/11 05:26:11;;;;;;;8.47;6.47;;;13.70;99.90;;;14.74;100.00;97973.97;5023998;28;20846;-76
2022/05/11 05:31:31;;;;;;;8.77;6.33;;;13.70;99.90;;;14.81;100.00;97972.09;5023528;28;20458;-76
2022/05/11 05:34:00;;;;;;;8.63;6.20;;;13.80;99.90;;;14.84;100.00;97974.28;5024763;28;20463;-76
2022/05/11 05:36:35;;;;;;;8.27;5.57;;;13.90;99.90;;;14.89;100.00;97974.44;5023895;28;20438;-76
2022/05/11 05:39:08;;;;;;;6.50;5.80;;;13.90;99.90;;;14.93;100.00;97970.34;5024279;28;20464;-76
2022/05/11 05:41:38;;;;;;;8.43;6.47;;;14.00;99.90;;;14.98;100.00;97978.44;5023602;28;20460;-76
2022/05/11 05:44:10;;;;;;;9.40;7.20;;;14.00;99.90;;;15.04;100.00;97974.09;5023305;28;20537;-76
2022/05/11 05:46:40;;;;;;;7.90;5.93;;;14.10;99.90;;;15.10;100.00;97973.22;5022433;28;20483;-76
2022/05/11 05:49:12;;;;;;;10.53;7.07;;;14.10;99.90;;;15.16;100.00;97982.91;5023587;28;20447;-76
2022/05/11 05:51:42;;;;;;;10.60;7.20;;;14.20;99.90;;;15.21;100.00;97969.88;5024273;28;20443;-76
2022/05/11 05:54:13;;;;;;;8.60;6.50;;;14.20;99.90;;;15.27;100.00;97969.00;5023975;28;20863;-76
2022/05/11 05:56:43;;;;;;;9.47;6.97;;;14.30;99.90;;;15.33;100.00;97968.16;5024952;28;20438;-76
2022/05/11 05:59:15;;;;;;;8.50;6.03;;;14.40;99.90;;;15.41;100.00;97969.69;5024051;28;20534;-76
2022/05/11 06:01:46;;;;;;;9.63;6.47;;;14.60;99.90;;;15.45;100.00;97971.66;5024229;28;20541;-76
2022/05/11 06:04:16;;;;;;;9.53;6.60;;;14.60;99.90;;;15.51;100.00;97962.94;5023575;28;20451;-76
2022/05/11 06:06:45;;;;;;;13.63;7.10;;;14.60;99.90;;;15.58;100.00;97966.25;5024034;28;20528;-76
2022/05/11 06:09:17;;;;;;;13.73;8.40;;;14.70;99.90;;;15.65;100.00;97963.56;5030095;28;20524;-76
2022/05/11 06:11:48;;;;;;;7.63;6.13;;;14.80;99.90;;;15.70;100.00;97957.63;5029431;28;20820;-76
2022/05/11 06:14:19;;;;;;;13.47;6.33;;;14.80;99.90;;;15.77;100.00;97958.34;5029532;28;20466;-76
2022/05/11 06:16:53;;;;;;;9.93;6.03;;;14.90;99.90;;;15.83;100.00;97958.25;5030126;28;20853;-76
2022/05/11 06:19:23;;;;;;;9.03;6.27;;;15.00;99.90;;;15.90;100.00;97952.91;5029478;28;20972;-76
2022/05/11 06:21:53;;;;;;;7.27;5.60;;;15.10;99.90;;;15.96;100.00;97954.66;5028884;28;21026;-76
2022/05/11 06:24:30;;;;;;;11.63;5.87;;;15.20;99.90;;;16.02;100.00;97957.22;5028875;28;20441;-76
2022/05/11 06:27:01;;;;;;;7.90;5.73;;;15.30;99.90;;;16.10;100.00;97958.72;5028599;28;20489;-76
2022/05/11 06:29:34;;;;;;;6.77;5.50;;;15.30;99.90;;;16.17;100.00;97948.09;5028874;28;20504;-76
2022/05/11 06:32:07;;;;;;;8.73;5.90;;;15.40;99.90;;;16.23;100.00;97947.19;5027779;28;20464;-76
2022/05/11 06:34:37;;;;;;;12.47;6.10;;;15.50;99.90;;;16.29;100.00;97941.78;5028762;28;20482;-76
2022/05/11 06:37:07;;;;;;;10.20;6.40;;;15.60;99.90;;;16.34;100.00;97947.22;5028777;28;20482;-76
2022/05/11 06:39:37;;;;;;;7.60;5.50;;;15.70;99.90;;;16.42;100.00;97946.88;5028115;28;20593;-76
2022/05/11 06:42:09;;;;;;;7.77;5.43;;;15.70;99.90;;;16.50;100.00;97943.09;5027362;28;20466;-76
2022/05/11 06:44:40;;;;;;;8.53;6.00;;;15.80;99.90;;;16.56;100.00;97948.31;5028268;28;20462;-76
2022/05/11 06:47:11;;;;;;;8.60;5.53;;;15.90;99.90;;;16.65;100.00;97942.72;5028222;28;20482;-76
2022/05/11 06:49:41;;;;;;;8.20;5.70;;;15.90;99.90;;;16.77;100.00;97935.59;5028047;28;20446;-76
2022/05/11 06:52:11;;;;;;;6.07;5.10;;;16.00;99.90;;;16.84;100.00;97937.09;5027495;28;20886;-76
2022/05/11 07:00:23;;;;;;;4.97;4.43;;;16.30;99.90;;;17.08;100.00;97941.34;5027846;28;20461;-76
2022/05/11 07:02:52;;;;;;;8.83;5.13;;;16.40;99.90;;;17.16;100.00;97942.00;5022670;28;20461;-76
2022/05/11 07:05:22;;;;;;;5.57;4.70;;;16.50;99.90;;;17.25;100.00;97944.06;5022078;28;20508;-76
2022/05/11 07:07:53;;;;;;;7.03;3.87;;;16.50;99.90;;;17.34;100.00;97939.25;5019937;28;20536;-76
2022/05/11 07:10:23;;;;;;;14.50;4.53;;;16.60;99.90;;;17.42;100.00;97936.25;5022465;28;20434;-76
2022/05/11 07:12:52;;;;;;;6.73;4.70;;;16.70;99.90;;;17.50;100.00;97930.56;5023066;28;20446;-76
2022/05/11 07:15:25;;;;;;;9.20;4.93;;;16.80;99.90;;;17.59;100.00;97924.75;5021784;28;20932;-76
2022/05/11 07:17:57;;;;;;;6.83;4.50;;;16.90;99.90;;;17.67;100.00;97930.69;5022758;28;20489;-76
2022/05/11 07:20:34;;;;;;;4.80;4.20;;;17.00;99.90;;;17.74;100.00;97933.97;5021178;28;20481;-76
2022/05/11 07:23:07;;;;;;;7.50;3.97;;;17.10;99.90;;;17.86;100.00;97916.25;5020468;28;20458;-76
2022/05/11 07:25:37;;;;;;;6.70;4.53;;;17.20;99.90;;;17.96;100.00;97924.38;5022981;28;20446;-76
2022/05/11 07:28:08;;;;;;;5.43;3.80;;;17.30;99.90;;;18.00;100.00;97917.56;5021553;28;20501;-76
2022/05/11 07:30:39;;;;;;;4.87;3.67;;;17.40;99.90;;;18.13;100.00;97919.91;5021195;28;20948;-76
2022/05/11 07:33:08;;;;;;;4.80;3.77;;;17.50;99.90;;;18.22;100.00;97929.09;5022356;28;21107;-76
2022/05/11 07:35:38;;;;;;;5.53;4.00;;;17.60;99.90;;;18.33;100.00;97925.53;5021778;28;20450;-76
2022/05/11 07:38:09;;;;;;;5.00;3.70;;;17.70;99.90;;;18.44;100.00;97929.97;5020252;28;20504;-76
2022/05/11 07:40:40;;;;;;;4.97;3.40;;;17.80;99.90;;;18.55;100.00;97923.03;5022337;28;20450;-76
2022/05/11 07:43:11;;;;;;;4.70;4.00;;;17.90;99.90;;;18.63;100.00;97924.47;5022930;28;20439;-76
2022/05/11 07:45:44;;;;;;;6.67;4.03;;;18.00;99.90;;;18.70;100.00;97917.97;5020784;28;20474;-76
2022/05/11 07:48:13;;;;;;;6.60;4.13;;;18.00;99.90;;;18.76;100.00;97916.19;5022136;28;20500;-76
2022/05/11 07:50:42;;;;;;;5.17;3.90;;;18.10;99.90;;;18.82;100.00;97920.53;5020310;28;20457;-76
2022/05/11 07:53:11;;;;;;;3.87;3.40;;;18.20;99.90;;;18.89;100.00;97918.50;5020860;28;20487;-76
2022/05/11 07:55:41;;;;;;;4.77;3.53;;;18.30;99.90;;;18.97;100.00;97920.75;5020880;28;20447;-76
2022/05/11 08:01:00;;;;;;;5.80;3.43;;;18.40;99.90;;;19.13;100.00;97917.25;5026490;28;20450;-76
2022/05/11 08:03:30;;;;;;;5.43;3.40;;;18.50;99.90;;;19.20;100.00;97920.53;5025393;28;20850;-76
2022/05/11 08:06:01;;;;;;;3.33;2.80;;;18.60;99.90;;;19.27;100.00;97909.75;5027167;28;20435;-76
2022/05/11 08:08:31;;;;;;;5.20;3.37;;;18.60;99.90;;;19.35;99.11;97914.63;5025884;28;20498;-76
2022/05/11 08:11:01;;;;;;;4.50;3.70;;;18.70;99.90;;;19.41;98.88;97901.22;5025969;28;20443;-76
2022/05/11 08:13:32;;;;;;;3.90;2.90;;;18.80;99.90;;;19.47;99.07;97910.06;5025693;28;20994;-76
2022/05/11 08:16:03;;;;;;;6.40;3.70;;;18.90;99.90;;;19.53;98.60;97909.88;5026185;28;21226;-76
2022/05/11 08:18:33;;;;;;;6.10;3.50;;;18.90;99.90;;;19.65;97.66;97915.03;5025995;28;20477;-76
2022/05/11 08:21:03;;;;;;;5.47;3.00;;;19.00;99.90;;;19.75;95.87;97903.75;5026471;28;20478;-76
2022/05/11 08:23:33;;;;;;;6.20;3.93;;;19.10;99.90;;;19.84;95.92;97899.59;5026125;28;20438;-76
2022/05/11 08:26:02;;;;;;;4.87;3.70;;;19.20;99.90;;;19.91;95.96;97898.34;5026197;28;20995;-76
2022/05/11 08:28:34;;;;;;;3.70;3.13;;;19.30;99.90;;;19.95;96.72;97901.31;5026494;28;21065;-76
2022/05/11 08:33:53;;;;;;;5.67;3.53;;;19.40;99.90;;;20.09;93.53;97894.53;5026906;28;20455;-76
2022/05/11 08:36:39;;;;;;;6.23;3.33;;;19.50;99.90;;;20.14;94.36;97893.75;5027311;28;20469;-76
2022/05/11 08:39:09;;;;;;;4.10;3.23;;;19.50;99.90;;;20.21;94.14;97887.19;5026717;28;20856;-76
2022/05/11 08:41:48;;;;;;;4.17;3.30;;;19.60;99.90;;;20.30;93.21;97882.28;5026029;28;20446;-76
2022/05/11 08:44:23;;;;;;;11.67;3.07;;;19.70;99.90;;;20.42;90.08;97883.69;5026826;28;20473;-76
2022/05/11 08:47:07;;;;;;;4.43;3.10;;;19.80;99.90;;;20.54;88.50;97881.69;5023857;28;20992;-76
2022/05/11 08:49:52;;;;;;;6.53;3.40;;;20.00;99.90;;;20.63;88.37;97878.53;5019750;28;20540;-76
2022/05/11 08:52:40;;;;;;;3.20;2.83;;;20.00;99.90;;;20.70;88.19;97879.09;5021172;28;20454;-76
2022/05/11 08:55:18;;;;;;;4.70;2.80;;;20.10;99.90;;;20.80;86.95;97889.81;5020614;28;20442;-76
2022/05/11 08:57:49;;;;;;;8.30;3.50;;;20.20;99.90;;;20.90;85.13;97881.88;5021039;28;20537;-76
2022/05/11 09:00:22;;;;;;;3.93;3.07;;;20.30;99.70;;;20.96;84.69;97872.91;5020176;28;20486;-76
2022/05/11 09:02:56;;;;;;;5.57;3.27;;;20.40;99.30;;;21.02;85.60;97871.88;5021769;28;20930;-76
2022/05/11 09:05:29;;;;;;;3.30;2.83;;;20.40;99.60;;;21.07;85.78;97874.53;5019887;28;20794;-76
2022/05/11 09:07:59;;;;;;;5.40;2.87;;;20.50;99.70;;;21.12;84.16;97871.13;5020070;28;20471;-76
2022/05/11 09:10:31;;;;;;;5.60;3.20;;;20.50;99.20;;;21.23;84.01;97868.28;5020256;28;20466;-76
2022/05/11 09:13:05;;;;;;;4.67;3.40;;;20.60;99.20;;;21.27;84.54;97864.03;5019572;28;20508;-76
2022/05/11 09:16:01;;;;;;;6.37;2.90;;;20.60;99.30;;;21.36;83.96;97867.00;5019944;28;21150;-76
2022/05/11 09:18:42;;;;;;;21.07;4.03;;;20.70;99.30;;;21.46;82.54;97867.84;5003626;28;20462;-76
2022/05/11 09:21:29;;;;;;;6.20;3.60;;;20.90;98.80;;;21.56;81.22;97865.19;5020536;28;20439;-76
2022/05/11 09:24:14;;;;;;;6.03;3.30;;;21.00;98.60;;;21.69;79.96;97861.25;5021044;28;20445;-76
2022/05/11 09:27:00;;;;;;;4.20;3.10;;;21.10;98.30;;;21.71;78.96;97842.34;5016384;28;20484;-75
2022/05/11 09:29:37;;;;;;;4.50;2.90;;;21.10;97.90;;;21.78;79.00;97848.22;5019168;28;20488;-76
2022/05/11 09:32:29;;;;;;;3.67;2.87;;;21.20;98.30;;;21.79;80.20;97852.50;5023624;28;21138;-76
2022/05/11 09:35:42;;;;;;;6.67;3.50;;;21.20;98.40;;;21.79;80.45;97847.97;5022449;28;20481;-76
2022/05/11 09:38:38;;;;;;;4.37;3.00;;;21.20;98.50;;;21.91;78.05;97853.06;5023259;28;21026;-76
2022/05/11 09:41:14;;;;;;;9.47;3.10;;;21.30;97.80;;;21.93;78.92;97849.09;5023257;28;20517;-76
2022/05/11 09:43:50;;;;;;;15.63;3.60;;;21.30;97.90;;;22.01;76.67;97843.22;5022565;28;20879;-76
2022/05/11 09:46:30;;;;;;;8.47;2.90;;;21.40;97.50;;;22.15;74.80;97848.81;5029129;28;20471;-76
2022/05/11 09:49:07;;;;;;;7.00;3.30;;;21.50;97.00;;;22.20;75.68;97851.50;5028603;28;20485;-76
2022/05/11 09:51:51;;;;;;;5.37;2.93;;;21.60;97.40;;;22.27;75.84;97852.03;5028396;28;20515;-76
2022/05/11 09:54:33;;;;;;;10.00;3.47;;;21.60;97.50;;;22.34;76.09;97843.78;5028477;28;20927;-76
2022/05/11 09:57:23;;;;;;;4.33;3.20;;;21.70;97.50;;;22.39;75.65;97838.41;5027791;28;20853;-76
2022/05/11 09:59:56;;;;;;;5.53;3.20;;;21.80;97.30;;;22.42;76.60;97833.34;5029013;28;21362;-76
2022/05/11 10:02:35;;;;;;;5.40;2.77;;;21.70;97.60;;;22.49;76.66;97825.09;5027249;28;20455;-76
2022/05/11 10:05:10;;;;;;;4.03;3.27;;;21.80;97.70;;;22.56;75.18;97836.31;5028105;28;20508;-76
2022/05/11 10:07:52;;;;;;;6.70;3.27;;;22.00;97.10;;;22.63;71.98;97828.03;5028037;28;20986;-76
2022/05/11 10:10:27;;;;;;;6.57;3.23;;;22.00;96.40;;;22.69;71.64;97805.63;5028331;28;20533;-76
2022/05/11 10:13:11;;;;;;;5.23;3.10;;;22.10;96.40;;;22.83;68.66;97815.47;5027727;28;20449;-76
2022/05/11 10:21:54;;;;;;;6.23;2.53;;;22.30;95.30;;;22.99;65.86;97806.34;5028019;28;20454;-76
2022/05/11 10:24:57;;;;;;;5.60;2.13;;;22.40;95.00;;;23.07;62.60;97804.97;5027524;28;20454;-76
2022/05/11 10:27:40;;;;;;;4.50;2.23;;;22.40;94.00;;;23.14;60.48;97794.81;5020544;28;20474;-76
2022/05/11 10:30:25;;;;;;;7.23;2.87;;;22.50;93.30;;;23.21;60.19;97791.84;5027946;28;21063;-76
2022/05/11 10:33:35;;;;;;;6.67;2.70;;;22.60;93.50;;;23.28;60.81;97787.00;5028666;28;20796;-76
2022/05/11 10:36:12;;;;;;;4.40;3.07;;;22.60;93.60;;;23.41;59.93;97779.22;5010908;28;20455;-76
2022/05/11 10:39:09;;;;;;;5.13;2.50;;;22.80;93.50;;;23.48;58.30;97782.38;5024452;28;20466;-76
2022/05/11 10:41:51;;;;;;;3.73;2.67;;;22.90;92.80;;;23.61;56.68;97790.84;5020814;28;20916;-76
2022/05/11 10:44:46;;;;;;;4.73;2.80;;;23.10;92.30;;;23.64;55.86;97798.31;5023354;28;20464;-76
2022/05/11 10:48:05;;;;;;;5.47;3.40;;;23.10;92.00;;;23.70;56.36;97779.31;5023210;28;20442;-76
2022/05/11 10:50:50;;;;;;;3.13;2.57;;;23.10;92.20;;;23.85;57.64;97786.41;5021432;28;20482;-76
2022/05/11 10:53:39;;;;;;;4.47;2.73;;;23.30;92.70;;;23.89;57.42;97779.44;5021656;28;20475;-76
2022/05/11 10:56:31;;;;;;;9.30;3.27;;;23.30;92.70;;;23.93;58.27;97772.44;5022537;28;20469;-76
2022/05/11 10:59:31;;;;;;;14.73;2.70;;;23.40;92.80;;;23.95;56.01;97775.66;5021865;28;20463;-76
2022/05/11 11:02:45;;;;;;;3.03;2.53;;;23.30;92.30;;;23.99;56.80;97782.00;5020125;28;20457;-77
2022/05/11 11:05:27;;;;;;;4.10;2.77;;;23.40;92.50;;;24.00;57.88;97784.41;5020557;28;20968;-76
2022/05/11 11:08:15;;;;;;;5.70;2.33;;;23.40;92.80;;;24.03;57.72;97767.03;5021325;28;20447;-76
2022/05/11 11:10:55;;;;;;;6.17;2.57;;;23.40;92.60;;;24.07;57.67;97773.41;5022441;28;20450;-76
2022/05/11 11:13:42;;;;;;;10.33;2.60;;;23.50;92.70;;;24.10;57.24;97775.50;5022251;28;20496;-76